Ansac Wyoming — 9V2947 — position and weather

sailwx.info

Track history (hours):
 
Tides and Currents Weather Stations Pressure Air Temp Water Temp Dewpoint Dewpoint Depression Visibility Wind Speed Wind Dir Waves Ship Positions

Ansac Wyoming

Last reported at 2018-Feb-16 10:39 UTC. Time now 2018-Feb-25 03:39 UTC.
Position N 28°28' W 093°17'.
Warning: this ship's position is 8 days out of date.

Length 179 m; draft 10.5 m.

Type: Cargo ship. MMSI: 566264000.

Date/timePositionNaut miles runAvg speedWind from/ knotsBaromVisibWave heightAir tempDewpointWater temp
2018-Feb-16 10:39N 28°28' W 093°17'3013.1
2018-Feb-16 08:23N 28°45' W 093°45'513.0
2018-Feb-16 08:00N 28°48' W 093°49'612.8
2018-Feb-16 07:30N 28°52' W 093°55'712.9
2018-Feb-16 06:56N 28°56' W 094°02'512.7
2018-Feb-16 06:30N 28°59' W 094°07'612.8
2018-Feb-16 06:00N 29°03' W 094°13'6 8.9
2018-Feb-16 05:17N 29°06' W 094°19'3 8.9
2018-Feb-16 05:00N 29°08' W 094°22'612.0
2018-Feb-16 04:30N 29°10' W 094°28'612.0
2018-Feb-16 04:00N 29°14' W 094°33'510.8
2018-Feb-16 03:30N 29°18' W 094°37'610.4
2018-Feb-16 02:55N 29°21' W 094°43'5 9.6
2018-Feb-16 02:25N 29°23' W 094°48'410.2
2018-Feb-16 02:00N 29°27' W 094°50'510.3
2018-Feb-16 01:29N 29°31' W 094°53'510.5
2018-Feb-16 00:59N 29°36' W 094°57'510.3
2018-Feb-16 00:30N 29°40' W 094°59'4 8.0
2018-Feb-16 00:00N 29°44' W 095°01'11 0.7
2018-Feb-15 08:05N 29°43' W 095°14'0 0.0
2018-Feb-15 07:05N 29°43' W 095°14'0 0.0
2018-Feb-15 06:53N 29°43' W 095°14'0 0.0
2018-Feb-15 06:07N 29°43' W 095°14'0 0.0
2018-Feb-15 04:10N 29°43' W 095°14'0 0.0
2018-Feb-15 03:55N 29°43' W 095°14'  
2018-Feb-11 13:10N 29°43' W 095°14'0 0.0
2018-Feb-11 12:58N 29°43' W 095°14'0 0.0
2018-Feb-10 21:19N 29°43' W 095°14'0 0.0
2018-Feb-10 20:40N 29°43' W 095°14'0 0.0
2018-Feb-10 20:22N 29°43' W 095°14'0 0.0
2018-Feb-10 15:46N 29°43' W 095°14'0 0.0
2018-Feb-10 05:46N 29°43' W 095°14'0 0.0
2018-Feb-10 05:19N 29°43' W 095°14'4 0.1
2018-Feb-08 01:30N 29°45' W 095°11'3 6.3
2018-Feb-08 01:00N 29°44' W 095°07'3 5.9
2018-Feb-08 00:30N 29°45' W 095°04'3 7.0
2018-Feb-08 00:01N 29°43' W 095°01'5 9.7
2018-Feb-07 23:30N 29°39' W 094°58'510.7
2018-Feb-07 23:00N 29°34' W 094°55'612.0
2018-Feb-07 22:31N 29°29' W 094°52'611.9
2018-Feb-07 22:00N 29°23' W 094°49'  
Track history (hours):
 
Tides and Currents Weather Stations Pressure Air Temp Water Temp Dewpoint Dewpoint Depression Visibility Wind Speed Wind Dir Waves Ship Positions

Ansac Wyoming

Last reported at 2018-Feb-16 10:39 UTC. Time now 2018-Feb-25 03:39 UTC.
Position N 28°28' W 093°17'.
Warning: this ship's position is 8 days out of date.

Length 179 m; draft 10.5 m.

Type: Cargo ship. MMSI: 566264000.

Date/timePositionNaut miles runAvg speedWind from/ knotsBaromVisibWave heightAir tempDewpointWater temp
2018-Feb-16 10:39N 28°28' W 093°17'3013.1
2018-Feb-16 08:23N 28°45' W 093°45'513.0
2018-Feb-16 08:00N 28°48' W 093°49'612.8
2018-Feb-16 07:30N 28°52' W 093°55'712.9
2018-Feb-16 06:56N 28°56' W 094°02'512.7
2018-Feb-16 06:30N 28°59' W 094°07'612.8
2018-Feb-16 06:00N 29°03' W 094°13'6 8.9
2018-Feb-16 05:17N 29°06' W 094°19'3 8.9
2018-Feb-16 05:00N 29°08' W 094°22'612.0
2018-Feb-16 04:30N 29°10' W 094°28'612.0
2018-Feb-16 04:00N 29°14' W 094°33'510.8
2018-Feb-16 03:30N 29°18' W 094°37'610.4
2018-Feb-16 02:55N 29°21' W 094°43'5 9.6
2018-Feb-16 02:25N 29°23' W 094°48'410.2
2018-Feb-16 02:00N 29°27' W 094°50'510.3
2018-Feb-16 01:29N 29°31' W 094°53'510.5
2018-Feb-16 00:59N 29°36' W 094°57'510.3
2018-Feb-16 00:30N 29°40' W 094°59'4 8.0
2018-Feb-16 00:00N 29°44' W 095°01'11 0.7
2018-Feb-15 08:05N 29°43' W 095°14'0 0.0
2018-Feb-15 07:05N 29°43' W 095°14'0 0.0
2018-Feb-15 06:53N 29°43' W 095°14'0 0.0
2018-Feb-15 06:07N 29°43' W 095°14'0 0.0
2018-Feb-15 04:10N 29°43' W 095°14'0 0.0
2018-Feb-15 03:55N 29°43' W 095°14'  
2018-Feb-11 13:10N 29°43' W 095°14'0 0.0
2018-Feb-11 12:58N 29°43' W 095°14'0 0.0
2018-Feb-10 21:19N 29°43' W 095°14'0 0.0
2018-Feb-10 20:40N 29°43' W 095°14'0 0.0
2018-Feb-10 20:22N 29°43' W 095°14'0 0.0
2018-Feb-10 15:46N 29°43' W 095°14'0 0.0
2018-Feb-10 05:46N 29°43' W 095°14'0 0.0
2018-Feb-10 05:19N 29°43' W 095°14'4 0.1
2018-Feb-08 01:30N 29°45' W 095°11'3 6.3
2018-Feb-08 01:00N 29°44' W 095°07'3 5.9
2018-Feb-08 00:30N 29°45' W 095°04'3 7.0
2018-Feb-08 00:01N 29°43' W 095°01'5 9.7
2018-Feb-07 23:30N 29°39' W 094°58'510.7
2018-Feb-07 23:00N 29°34' W 094°55'612.0
2018-Feb-07 22:31N 29°29' W 094°52'611.9
2018-Feb-07 22:00N 29°23' W 094°49'  

Dump ship's entire track history